YMMLYBCG

Guest
Details From YMML - Melbourne Intl
To YBCG - Gold Coast International
Flight Number -
Tags Generated
Created
Modified
Stats Distance 718 nm / 1,329 km
Max Altitude 0 ft / 0 m
Waypoints 5
Social Downloads 11
Likes 0
Share VATSIM

Download

Looking for another format? Having issues loading an existing format? Contact us
Advertisement - Login to hide

Notes

Generated

Route

YMML YNGNM STWEI CG YBCG

ID Type Via Altitude Latitude Longitude Leg Dist Tot Dist Heading (true) Name
O YMML APT - 0 ft / 0 m -37.66220˚ 144.84819˚ - 0 nm - -
YNGNM FIX - 0 ft / 0 m -34.24590˚ 148.25019˚ 263 nm 263 nm 40° / 38° -
STWEI FIX - 0 ft / 0 m -31.20118˚ 151.00014˚ 229 nm 493 nm 38° / 36° -
CG NDB - 0 ft / 0 m -28.16486˚ 153.50111˚ 224 nm 717 nm 36° / 35° COOLANGATTA NDB
O YBCG APT - 0 ft / 0 m -28.15621˚ 153.50016˚ 0 nm 717 nm 354° / 354° -

Altitude Profile

Advertisement - Login to hide

Weather


0- 5 10 15 20 25 30 35+ Temperature / ° C

Clouds and Precipitation
Forecast for 2017-12-14 18:00 UTC. Updated 2 minutes ago

Ground ~20,000 ft ~40,000 ft Winds

YMML

Details ICAO YMML (MEL)
Name Melbourne Intl
Region Australia
Timezone Australia/Melbourne (UTC+11.0)
Stats Elevation 433 ft / 132 m (AMSL)
Location -37.665301° 144.836668°
Runways 2
Magnetic Variation 11.504° E

METAR

YMML 141300Z 17007KT CAVOK 15/09 Q1013 NOSIG

Decode

TAF

TAF YMML 141104Z 1412/1518 17008KT 9999 FEW025 BECMG 1415/1417 VRB05KT 9999 BKN020 BECMG 1420/1422 18008KT CAVOK FM150500 17015G25KT CAVOK FM151000 18008KT CAVOK BECMG 1514/1516 29006KT CAVOK

Decode

Departure Runways

ID Width Length Bearing (true) Bearing (mag) Surface Threshold Offset Overrun Length
09 148 ft / 45 m 7,494 ft / 2,284 m 94.01° 82.51° Asphalt 0 ft / 0 m 0 ft / 0 m
16 148 ft / 45 m 12,008 ft / 3,660 m 171.02° 159.52° Asphalt 98 ft / 30 m 0 ft / 0 m
27 148 ft / 45 m 7,494 ft / 2,284 m 274.00° 262.50° Asphalt 0 ft / 0 m 0 ft / 0 m
34 148 ft / 45 m 12,008 ft / 3,660 m 351.01° 339.51° Asphalt 98 ft / 30 m 0 ft / 0 m

YBCG

Details ICAO YBCG (OOL)
Name Gold Coast International
Region Australia
Timezone Australia/Brisbane (UTC+10.0)
Stats Elevation 20 ft / 6 m (AMSL)
Location -28.166035° 153.506155°
Runways 2
Magnetic Variation 11.330° E

METAR

YBCG 141300Z AUTO 36010KT 9999 // SCT026 OVC032 24/19 Q1013

Decode

TAF

TAF YBCG 140529Z 1406/1506 03012KT 9999 FEW030 FM141100 24006KT 9999 FEW025 FM142300 03012KT 9999 FEW035

Decode

Destination Runways

ID Width Length Bearing (true) Bearing (mag) Surface Threshold Offset Overrun Length
14 148 ft / 45 m 7,687 ft / 2,343 m 150.04° 138.71° Asphalt 0 ft / 0 m 394 ft / 120 m
17 59 ft / 18 m 1,911 ft / 582 m 184.00° 172.67° Asphalt 0 ft / 0 m 0 ft / 0 m
32 148 ft / 45 m 7,687 ft / 2,343 m 330.04° 318.71° Asphalt 0 ft / 0 m 394 ft / 120 m
35 59 ft / 18 m 1,911 ft / 582 m 4.00° 352.67° Asphalt 0 ft / 0 m 0 ft / 0 m

Popular Alternatives